Time;durP1;ratioP1;P1;durP2;ratioP2;P2;SDS_P1;SDS_P2;PMS_P1;PMS_P2;Temp;Humidity;BMP_temperature;BMP_pressure;BME280_temperature;BME280_humidity;BME280_pressure;Samples;Min_cycle;Max_cycle;Signal;HPM_P1;HPM_P2
2022/10/10 00:01:24;;;;;;;7.13;4.77;;;12.40;99.90;;;;;;6232192;28;20424;-63
2022/10/10 00:04:27;;;;;;;6.97;4.90;;;12.40;99.90;;;;;;6235552;28;20456;-63
2022/10/10 00:07:32;;;;;;;5.73;4.77;;;12.40;99.90;;;;;;6234633;28;20529;-65
2022/10/10 00:10:35;;;;;;;5.27;3.90;;;12.40;99.90;;;;;;6236769;28;20460;-63
2022/10/10 00:13:39;;;;;;;6.70;4.70;;;12.40;99.90;;;;;;6224948;28;20471;-63
2022/10/10 00:16:42;;;;;;;5.00;4.13;;;12.40;99.90;;;;;;6226526;28;21011;-64
2022/10/10 00:19:45;;;;;;;6.47;4.23;;;12.40;99.90;;;;;;6230788;28;20557;-64
2022/10/10 00:22:49;;;;;;;5.13;4.23;;;12.40;99.90;;;;;;6230597;28;21001;-64
2022/10/10 00:25:53;;;;;;;5.23;4.10;;;12.40;99.90;;;;;;6230741;28;20577;-64
2022/10/10 00:28:56;;;;;;;5.70;4.30;;;12.50;99.90;;;;;;6231609;28;20482;-62
2022/10/10 00:31:59;;;;;;;9.13;4.60;;;12.50;99.90;;;;;;6229815;28;20507;-64
2022/10/10 00:35:03;;;;;;;4.87;4.47;;;12.50;99.90;;;;;;6229246;28;20491;-64
2022/10/10 00:38:08;;;;;;;7.60;4.50;;;12.50;99.90;;;;;;6229491;28;20487;-64
2022/10/10 00:41:11;;;;;;;9.63;4.47;;;12.40;99.90;;;;;;6229352;28;20476;-64
2022/10/10 00:44:16;;;;;;;5.13;4.63;;;12.40;99.90;;;;;;6224681;28;20487;-64
2022/10/10 00:47:19;;;;;;;7.63;5.40;;;12.30;99.90;;;;;;6229081;28;20476;-64
2022/10/10 00:50:24;;;;;;;8.43;4.50;;;12.30;99.90;;;;;;6230577;28;20534;-63
2022/10/10 00:53:32;;;;;;;6.60;5.00;;;12.30;99.90;;;;;;6230102;28;20537;-63
2022/10/10 00:56:40;;;;;;;6.33;5.00;;;12.20;99.90;;;;;;6228715;28;20480;-63
2022/10/10 00:59:45;;;;;;;4.90;4.50;;;12.20;99.90;;;;;;6228817;28;20480;-63
2022/10/10 01:02:49;;;;;;;5.73;5.17;;;12.30;99.90;;;;;;6229747;28;20479;-63
2022/10/10 01:05:53;;;;;;;5.40;4.90;;;12.20;99.90;;;;;;6228475;28;20486;-63
2022/10/10 01:08:58;;;;;;;9.23;5.30;;;12.30;99.90;;;;;;6228552;28;21056;-64
2022/10/10 01:12:12;;;;;;;5.90;4.90;;;12.30;99.90;;;;;;6228613;28;20472;-63
2022/10/10 01:15:22;;;;;;;6.03;5.10;;;12.30;99.90;;;;;;6228177;28;20487;-63
2022/10/10 01:18:34;;;;;;;8.27;4.60;;;12.30;99.90;;;;;;6228225;28;20491;-64
2022/10/10 01:21:45;;;;;;;5.50;4.87;;;12.40;99.90;;;;;;6228200;28;20965;-64
2022/10/10 01:24:56;;;;;;;6.37;5.07;;;12.40;99.90;;;;;;6228239;28;20479;-64
2022/10/10 01:28:02;;;;;;;5.20;4.80;;;12.40;99.90;;;;;;6227787;28;20495;-64
2022/10/10 01:31:10;;;;;;;6.03;4.40;;;12.40;99.90;;;;;;6227501;28;20882;-63
2022/10/10 01:34:20;;;;;;;6.53;4.67;;;12.40;99.90;;;;;;6228123;28;20464;-64
2022/10/10 01:37:34;;;;;;;8.17;5.13;;;12.40;99.90;;;;;;6227723;28;20464;-64
2022/10/10 01:40:47;;;;;;;7.93;4.70;;;12.40;99.90;;;;;;6227649;28;20499;-64
2022/10/10 01:43:53;;;;;;;4.60;4.10;;;12.40;99.90;;;;;;6227504;28;20483;-63
2022/10/10 01:46:58;;;;;;;7.73;4.30;;;12.40;99.90;;;;;;6222911;28;20476;-64
2022/10/10 01:50:04;;;;;;;5.53;4.50;;;12.40;99.90;;;;;;6227820;28;20472;-63
2022/10/10 01:53:15;;;;;;;7.03;4.30;;;12.30;99.90;;;;;;6228084;28;20475;-64
2022/10/10 01:56:28;;;;;;;4.63;4.23;;;12.40;99.90;;;;;;6229325;28;20487;-65
2022/10/10 01:59:46;;;;;;;7.83;5.00;;;12.40;99.90;;;;;;6235155;28;20980;-66
2022/10/10 02:02:57;;;;;;;4.80;4.40;;;12.40;99.90;;;;;;6233347;28;20488;-62
2022/10/10 02:06:06;;;;;;;6.33;4.60;;;12.40;99.90;;;;;;6227016;28;20484;-62
2022/10/10 02:09:13;;;;;;;5.50;4.50;;;12.40;99.90;;;;;;6227039;28;21008;-63
2022/10/10 02:12:17;;;;;;;5.53;4.60;;;12.40;99.90;;;;;;6227320;28;20479;-63
2022/10/10 02:15:24;;;;;;;5.03;4.60;;;12.40;99.90;;;;;;6227103;28;20500;-64
2022/10/10 02:18:32;;;;;;;7.40;4.73;;;12.40;99.90;;;;;;6227071;28;20484;-64
2022/10/10 02:21:38;;;;;;;6.80;5.13;;;12.40;99.90;;;;;;6227250;28;20487;-64
2022/10/10 02:24:42;;;;;;;5.40;4.90;;;12.40;99.90;;;;;;6226837;28;20484;-64
2022/10/10 02:27:51;;;;;;;4.93;4.47;;;12.40;99.90;;;;;;6226653;28;20478;-64
2022/10/10 02:30:57;;;;;;;5.33;4.33;;;12.50;99.90;;;;;;6226343;28;20804;-64
2022/10/10 02:34:07;;;;;;;7.83;4.63;;;12.50;99.90;;;;;;6226825;28;20864;-64
2022/10/10 02:37:13;;;;;;;6.20;4.80;;;12.50;99.90;;;;;;6226628;28;20497;-64
2022/10/10 02:40:21;;;;;;;5.40;4.43;;;12.50;99.90;;;;;;6225566;28;20828;-64
2022/10/10 02:43:25;;;;;;;5.30;4.83;;;12.50;99.90;;;;;;6226616;28;20424;-63
2022/10/10 02:46:28;;;;;;;4.70;4.30;;;12.40;99.90;;;;;;6226210;28;20455;-64
2022/10/10 02:49:34;;;;;;;5.17;4.67;;;12.50;99.90;;;;;;6221949;28;20488;-63
2022/10/10 02:52:38;;;;;;;6.20;4.40;;;12.50;99.90;;;;;;6226467;28;20537;-63
2022/10/10 02:55:41;;;;;;;7.90;4.57;;;12.50;99.90;;;;;;6226393;28;20529;-63
2022/10/10 02:58:44;;;;;;;6.40;4.60;;;12.50;99.90;;;;;;6226470;28;20468;-63
2022/10/10 03:01:47;;;;;;;4.30;4.00;;;12.50;99.90;;;;;;6226769;28;20792;-62
2022/10/10 03:04:52;;;;;;;4.63;4.20;;;12.60;99.90;;;;;;6225788;28;20915;-63
2022/10/10 03:07:55;;;;;;;5.10;4.60;;;12.60;99.90;;;;;;6225966;28;20468;-62
2022/10/10 03:10:59;;;;;;;5.03;4.23;;;12.60;99.90;;;;;;6225955;28;20587;-63
2022/10/10 03:14:02;;;;;;;7.20;4.10;;;12.50;99.90;;;;;;6225704;28;20476;-63
2022/10/10 03:17:06;;;;;;;4.00;3.30;;;12.60;99.90;;;;;;6226416;28;20472;-62
2022/10/10 03:20:11;;;;;;;4.40;4.00;;;12.60;99.90;;;;;;6225496;28;20837;-62
2022/10/10 03:23:14;;;;;;;4.40;4.00;;;12.60;99.90;;;;;;6225694;28;20791;-63
2022/10/10 03:26:17;;;;;;;8.20;4.50;;;12.60;99.90;;;;;;6225596;28;20533;-62
2022/10/10 03:29:20;;;;;;;5.73;4.30;;;12.60;99.90;;;;;;6225495;28;20868;-62
2022/10/10 03:32:24;;;;;;;6.40;4.03;;;12.60;99.90;;;;;;6225488;28;20483;-62
2022/10/10 03:35:28;;;;;;;7.00;4.70;;;12.60;99.90;;;;;;6225702;28;20479;-63
2022/10/10 03:38:31;;;;;;;8.30;5.37;;;12.60;99.90;;;;;;6225571;28;20488;-62
2022/10/10 03:41:35;;;;;;;13.20;8.50;;;12.60;99.90;;;;;;6225767;28;20480;-63
2022/10/10 03:44:38;;;;;;;8.27;5.40;;;12.60;99.90;;;;;;6225201;28;20483;-64
2022/10/10 03:47:41;;;;;;;5.53;4.70;;;12.60;99.90;;;;;;6225032;28;20973;-63
2022/10/10 03:50:46;;;;;;;6.37;4.60;;;12.60;99.90;;;;;;6225471;28;20476;-64
2022/10/10 03:53:49;;;;;;;5.57;5.00;;;12.70;99.90;;;;;;6224758;28;20480;-64
2022/10/10 03:56:52;;;;;;;4.60;4.00;;;12.60;99.90;;;;;;6225129;28;20511;-64
2022/10/10 03:59:55;;;;;;;4.70;4.30;;;12.70;99.90;;;;;;6242513;28;20467;-64
2022/10/10 04:02:58;;;;;;;5.60;3.53;;;12.70;99.90;;;;;;6249521;28;20475;-63
2022/10/10 04:06:03;;;;;;;5.00;4.10;;;12.80;99.90;;;;;;6249185;28;20847;-63
2022/10/10 04:09:06;;;;;;;6.63;4.00;;;12.70;99.90;;;;;;6249443;28;20471;-64
2022/10/10 04:12:09;;;;;;;5.70;3.67;;;12.80;99.90;;;;;;6249679;28;20479;-64
2022/10/10 04:15:12;;;;;;;4.90;4.13;;;12.80;99.90;;;;;;6249444;28;20479;-63
2022/10/10 04:18:16;;;;;;;4.43;4.03;;;12.80;99.90;;;;;;6249202;28;20471;-64
2022/10/10 04:21:20;;;;;;;9.03;4.37;;;12.80;99.90;;;;;;6249024;28;20529;-63
2022/10/10 04:24:23;;;;;;;7.97;4.73;;;12.80;99.90;;;;;;6249556;28;20576;-64
2022/10/10 04:27:26;;;;;;;5.83;4.83;;;12.80;99.90;;;;;;6249785;28;20467;-63
2022/10/10 04:30:33;;;;;;;5.43;4.27;;;12.70;99.90;;;;;;6249172;28;20475;-63
2022/10/10 04:33:36;;;;;;;4.30;3.93;;;12.70;99.90;;;;;;6250615;28;20471;-63
2022/10/10 04:36:40;;;;;;;5.10;4.60;;;12.70;99.90;;;;;;6255786;28;20953;-63
2022/10/10 04:39:43;;;;;;;10.00;5.10;;;12.80;99.90;;;;;;6248855;28;20483;-63
2022/10/10 04:42:47;;;;;;;4.90;4.40;;;12.80;99.90;;;;;;6248955;28;20494;-64
2022/10/10 04:45:50;;;;;;;5.30;4.80;;;12.80;99.90;;;;;;6248970;28;20530;-64
2022/10/10 04:48:53;;;;;;;6.60;4.70;;;12.80;99.90;;;;;;6248591;28;20471;-64
2022/10/10 04:51:58;;;;;;;5.70;4.83;;;12.80;99.90;;;;;;6249041;28;20483;-63
2022/10/10 04:55:01;;;;;;;5.30;4.80;;;12.80;99.90;;;;;;6248855;28;20948;-63
2022/10/10 04:58:04;;;;;;;4.83;4.33;;;12.80;99.90;;;;;;6249135;28;20470;-63
2022/10/10 05:01:07;;;;;;;5.23;4.73;;;12.90;99.90;;;;;;6237670;28;20544;-64
2022/10/10 05:04:11;;;;;;;4.80;3.67;;;12.90;99.90;;;;;;6250713;28;20504;-64
2022/10/10 05:07:16;;;;;;;4.80;4.30;;;12.90;99.90;;;;;;6253333;28;20451;-63
2022/10/10 05:10:19;;;;;;;6.17;4.20;;;12.90;99.90;;;;;;6253441;28;20439;-63
2022/10/10 05:13:22;;;;;;;5.73;4.20;;;12.90;99.90;;;;;;6253130;28;20516;-64
2022/10/10 05:16:26;;;;;;;4.47;4.10;;;12.90;99.90;;;;;;6253112;28;20474;-63
2022/10/10 05:19:29;;;;;;;4.97;4.47;;;12.90;99.90;;;;;;6252941;28;20471;-64
2022/10/10 05:22:33;;;;;;;5.67;5.17;;;12.90;99.90;;;;;;6252928;28;20467;-63
2022/10/10 05:25:36;;;;;;;5.60;4.30;;;12.90;99.90;;;;;;6253244;28;20479;-63
2022/10/10 05:28:39;;;;;;;6.70;5.00;;;12.90;99.90;;;;;;6252944;28;20528;-63
2022/10/10 05:31:43;;;;;;;7.00;5.80;;;12.90;99.90;;;;;;6252530;28;20475;-63
2022/10/10 05:34:46;;;;;;;9.07;6.30;;;13.00;99.90;;;;;;6252743;28;20493;-64
2022/10/10 05:37:50;;;;;;;5.53;5.03;;;13.00;99.90;;;;;;6253098;28;20482;-64
2022/10/10 05:40:55;;;;;;;5.90;5.03;;;13.00;99.90;;;;;;6252124;28;20483;-61
2022/10/10 05:43:58;;;;;;;5.73;5.10;;;13.00;99.90;;;;;;6252269;28;20520;-61
2022/10/10 05:47:03;;;;;;;5.77;5.07;;;13.10;99.90;;;;;;6252252;28;20471;-61
2022/10/10 05:50:07;;;;;;;7.90;5.40;;;13.10;99.90;;;;;;6252265;28;20471;-61
2022/10/10 05:53:12;;;;;;;5.00;4.50;;;13.10;99.90;;;;;;6246488;28;20475;-61
2022/10/10 05:56:16;;;;;;;5.60;5.10;;;13.10;99.90;;;;;;6240629;28;20537;-65
2022/10/10 05:59:19;;;;;;;6.40;4.70;;;13.20;99.90;;;;;;6242575;28;20479;-66
2022/10/10 06:02:22;;;;;;;6.93;5.00;;;13.20;99.90;;;;;;6220517;28;20953;-65
2022/10/10 06:05:25;;;;;;;6.20;4.90;;;13.30;99.90;;;;;;6235408;28;20530;-60
2022/10/10 06:08:31;;;;;;;6.20;5.60;;;13.30;99.90;;;;;;6239873;28;20476;-60
2022/10/10 06:11:34;;;;;;;10.30;4.60;;;13.30;99.90;;;;;;6242121;28;20998;-60
2022/10/10 06:14:37;;;;;;;5.60;5.03;;;13.40;99.90;;;;;;6250671;28;20613;-60
2022/10/10 06:17:41;;;;;;;5.80;5.30;;;13.50;99.90;;;;;;6250804;28;20486;-60
2022/10/10 06:20:44;;;;;;;7.37;5.63;;;13.60;99.90;;;;;;6251615;28;20474;-61
2022/10/10 06:23:49;;;;;;;6.70;5.40;;;13.60;99.90;;;;;;6252907;28;20505;-65
2022/10/10 06:26:52;;;;;;;7.20;5.20;;;13.70;99.90;;;;;;6250818;28;20817;-65
2022/10/10 06:29:55;;;;;;;7.33;5.47;;;13.70;99.90;;;;;;6250374;28;20925;-65
2022/10/10 06:32:58;;;;;;;8.67;5.37;;;13.70;99.90;;;;;;6250772;28;20796;-64
2022/10/10 06:36:05;;;;;;;5.00;4.03;;;13.80;99.90;;;;;;6250850;28;20505;-64
2022/10/10 06:39:10;;;;;;;6.03;4.83;;;13.80;99.90;;;;;;6250652;28;20490;-64
2022/10/10 06:42:13;;;;;;;6.87;4.60;;;13.90;99.90;;;;;;6250599;28;20800;-61
2022/10/10 06:45:16;;;;;;;6.67;5.37;;;14.00;99.90;;;;;;6250508;28;20475;-64
2022/10/10 06:48:19;;;;;;;7.07;5.07;;;14.10;99.90;;;;;;6250499;28;20867;-64
2022/10/10 06:51:24;;;;;;;5.87;5.23;;;14.20;99.90;;;;;;6250203;28;20824;-65
2022/10/10 06:54:29;;;;;;;6.00;5.50;;;14.30;99.90;;;;;;6250508;28;20490;-64
2022/10/10 06:57:32;;;;;;;5.03;4.30;;;14.50;99.90;;;;;;6250147;28;20533;-65
2022/10/10 07:00:35;;;;;;;4.50;4.10;;;14.50;99.90;;;;;;6250175;28;20479;-65
2022/10/10 07:03:38;;;;;;;9.20;4.47;;;14.70;99.90;;;;;;6250011;28;20471;-66
2022/10/10 07:06:41;;;;;;;7.13;4.70;;;14.80;99.90;;;;;;6245448;28;20486;-66
2022/10/10 07:09:46;;;;;;;6.20;5.10;;;14.90;99.90;;;;;;6250091;28;20482;-66
2022/10/10 07:12:49;;;;;;;4.50;4.10;;;15.10;99.90;;;;;;6250066;28;20509;-66
2022/10/10 07:15:53;;;;;;;4.57;4.10;;;15.10;99.90;;;;;;6249873;28;20467;-65
2022/10/10 07:18:56;;;;;;;5.20;4.43;;;15.20;99.90;;;;;;6249902;28;20495;-65
2022/10/10 07:21:59;;;;;;;4.60;4.20;;;15.30;99.90;;;;;;6249697;28;20948;-66
2022/10/10 07:25:04;;;;;;;8.03;3.73;;;15.40;99.90;;;;;;6249825;28;20792;-65
2022/10/10 07:28:07;;;;;;;4.67;4.03;;;15.50;99.90;;;;;;6249497;28;20949;-65
2022/10/10 07:31:11;;;;;;;7.43;3.97;;;15.40;99.90;;;;;;6249930;28;20513;-65
2022/10/10 07:34:14;;;;;;;7.20;3.80;;;15.50;99.90;;;;;;6249855;28;20483;-65
2022/10/10 07:37:17;;;;;;;5.10;4.10;;;15.80;99.90;;;;;;6249863;28;20540;-65
2022/10/10 07:40:23;;;;;;;6.70;4.67;;;16.00;99.90;;;;;;6249139;28;20558;-65
2022/10/10 07:43:26;;;;;;;6.33;4.80;;;16.20;99.90;;;;;;6249804;28;20423;-65
2022/10/10 07:46:32;;;;;;;8.07;4.10;;;16.30;99.90;;;;;;6249644;28;20473;-65
2022/10/10 07:49:35;;;;;;;5.97;4.50;;;16.40;99.90;;;;;;6249476;28;20467;-65
2022/10/10 07:52:39;;;;;;;9.23;4.83;;;16.30;99.90;;;;;;6249937;28;20505;-65
2022/10/10 07:55:44;;;;;;;6.40;5.20;;;16.30;99.90;;;;;;6249540;28;20467;-65
2022/10/10 07:58:47;;;;;;;6.90;5.43;;;16.40;99.90;;;;;;6248347;28;20798;-65
2022/10/10 08:01:50;;;;;;;12.10;6.43;;;16.50;99.90;;;;;;6233013;28;20996;-66
2022/10/10 08:04:54;;;;;;;12.40;7.33;;;16.60;99.90;;;;;;6236950;28;20486;-66
2022/10/10 08:07:57;;;;;;;8.47;6.93;;;16.70;99.90;;;;;;6222763;28;20479;-63
2022/10/10 08:11:03;;;;;;;10.07;6.40;;;17.00;99.90;;;;;;6228863;28;20486;-64
2022/10/10 08:14:07;;;;;;;7.93;6.77;;;17.00;99.90;;;;;;6260783;28;20490;-63
2022/10/10 08:17:10;;;;;;;8.93;6.97;;;17.40;99.90;;;;;;6240893;28;20483;-64
2022/10/10 08:20:13;;;;;;;11.10;6.33;;;18.50;99.50;;;;;;6246382;28;20486;-64
2022/10/10 08:23:16;;;;;;;6.80;5.20;;;19.90;97.00;;;;;;6249253;28;20848;-63
2022/10/10 08:26:26;;;;;;;8.43;6.50;;;21.00;93.80;;;;;;6234788;28;20228;-63
2022/10/10 08:29:29;;;;;;;9.47;5.80;;;21.50;91.80;;;;;;6246973;28;20243;-63
2022/10/10 08:32:32;;;;;;;6.67;5.93;;;22.00;90.60;;;;;;6248790;28;20228;-64
2022/10/10 08:35:37;;;;;;;7.17;6.47;;;22.30;86.80;;;;;;6248476;28;20232;-64
2022/10/10 08:38:41;;;;;;;9.17;7.20;;;23.00;86.20;;;;;;6251028;28;20228;-64
2022/10/10 08:41:50;;;;;;;7.00;6.30;;;24.10;80.00;;;;;;6254055;28;20237;-65
2022/10/10 08:44:57;;;;;;;7.07;5.83;;;24.50;74.80;;;;;;6250011;28;20232;-65
2022/10/10 08:48:03;;;;;;;11.33;6.73;;;24.10;72.30;;;;;;6252906;28;20270;-65
2022/10/10 08:51:11;;;;;;;12.70;7.00;;;23.70;72.80;;;;;;6230588;28;20231;-65
2022/10/10 08:54:17;;;;;;;10.33;7.70;;;23.20;71.90;;;;;;6232713;28;20232;-63
2022/10/10 08:57:28;;;;;;;7.37;6.33;;;22.90;73.00;;;;;;6228254;28;20387;-63
2022/10/10 09:00:37;;;;;;;8.63;6.80;;;22.70;72.10;;;;;;6238365;28;20224;-64
2022/10/10 09:03:45;;;;;;;7.93;6.63;;;22.20;73.90;;;;;;6253025;28;20232;-65
2022/10/10 09:07:06;;;;;;;9.00;7.20;;;22.00;75.00;;;;;;6238287;28;20607;-64
2022/10/10 09:10:18;;;;;;;7.47;5.60;;;21.80;75.30;;;;;;6227950;28;20287;-64
2022/10/10 09:13:31;;;;;;;8.43;5.90;;;21.70;74.80;;;;;;6247387;28;20225;-65
2022/10/10 09:16:42;;;;;;;9.60;8.60;;;21.90;75.70;;;;;;6228138;28;20233;-64
2022/10/10 09:19:57;;;;;;;8.50;6.83;;;22.20;74.10;;;;;;6229449;28;20233;-64
2022/10/10 09:23:04;;;;;;;9.60;8.60;;;22.30;72.50;;;;;;6229278;28;20237;-64
2022/10/10 09:26:11;;;;;;;8.00;6.60;;;22.70;71.90;;;;;;6228467;28;20252;-65
2022/10/10 09:29:27;;;;;;;9.43;7.50;;;23.10;69.90;;;;;;6228041;28;20233;-65
2022/10/10 09:32:38;;;;;;;8.03;5.90;;;23.70;68.40;;;;;;6228262;28;20283;-64
2022/10/10 09:35:42;;;;;;;7.07;6.47;;;24.00;67.00;;;;;;6228089;28;20243;-64
2022/10/10 09:38:50;;;;;;;8.20;6.83;;;24.80;65.30;;;;;;6228033;28;20247;-64
2022/10/10 09:41:57;;;;;;;11.57;7.53;;;25.60;62.60;;;;;;6227560;28;20248;-64
2022/10/10 09:45:02;;;;;;;11.13;6.60;;;26.30;59.40;;;;;;6245581;28;20239;-65
2022/10/10 09:48:06;;;;;;;7.13;6.43;;;27.30;55.60;;;;;;6252675;28;20235;-65
2022/10/10 09:51:13;;;;;;;9.40;6.30;;;28.70;51.90;;;;;;6238087;28;20220;-65
2022/10/10 09:54:19;;;;;;;7.97;5.67;;;30.10;48.10;;;;;;6227907;28;20247;-63
2022/10/10 09:57:25;;;;;;;8.80;5.43;;;30.00;45.20;;;;;;6229273;28;20237;-66
2022/10/10 10:00:35;;;;;;;7.10;6.40;;;30.70;44.70;;;;;;6249884;28;20232;-66
2022/10/10 10:03:38;;;;;;;7.30;6.60;;;30.80;42.20;;;;;;6252768;28;20673;-63
2022/10/10 10:06:45;;;;;;;7.10;5.60;;;30.70;41.80;;;;;;6252181;28;20243;-65
2022/10/10 10:09:50;;;;;;;7.32;5.40;;;31.60;39.90;;;;;;6252164;28;20223;-65
2022/10/10 10:12:54;;;;;;;7.07;4.90;;;32.20;38.60;;;;;;6236005;28;20226;-64
2022/10/10 10:16:06;;;;;;;6.88;5.78;;;32.70;36.70;;;;;;6229101;28;20239;-65
2022/10/10 10:19:30;;;;;;;6.93;4.95;;;33.10;35.50;;;;;;6221636;28;20235;-64
2022/10/10 10:22:37;;;;;;;5.65;4.80;;;33.90;34.50;;;;;;6237263;28;20229;-64
2022/10/10 10:25:40;;;;;;;6.30;5.07;;;35.60;32.40;;;;;;6241093;28;20264;-66
2022/10/10 10:28:44;;;;;;;4.90;4.40;;;38.00;29.30;;;;;;6235224;28;20671;-65
2022/10/10 10:31:59;;;;;;;7.15;5.03;;;40.20;26.80;;;;;;6239189;28;20228;-66
2022/10/10 10:35:14;;;;;;;6.10;4.65;;;42.00;24.60;;;;;;6232536;28;20597;-64
2022/10/10 10:38:31;;;;;;;4.28;3.80;;;42.00;23.40;;;;;;6219565;28;20229;-65
2022/10/10 10:41:40;;;;;;;6.05;4.03;;;43.60;22.90;;;;;;6240064;28;20676;-65
2022/10/10 10:44:51;;;;;;;4.65;4.25;;;45.20;21.10;;;;;;6234952;28;20544;-66
2022/10/10 10:48:04;;;;;;;4.85;3.90;;;46.70;19.90;;;;;;6226407;28;20730;-65
2022/10/10 10:51:22;;;;;;;4.85;4.10;;;47.90;18.70;;;;;;6229704;28;20620;-65
2022/10/10 10:54:39;;;;;;;7.10;4.15;;;47.50;17.80;;;;;;6233849;28;20238;-66
2022/10/10 10:58:02;;;;;;;4.30;3.90;;;46.60;18.50;;;;;;6248041;28;20258;-66
2022/10/10 11:01:29;;;;;;;4.22;3.92;;;47.50;17.50;;;;;;6217550;28;21581;-66
2022/10/10 11:05:19;;;;;;;4.88;3.80;;;47.70;17.40;;;;;;6236313;28;20401;-65
2022/10/10 11:08:48;;;;;;;4.35;3.95;;;47.50;17.50;;;;;;6236712;28;20242;-63
2022/10/10 11:12:07;;;;;;;5.38;4.35;;;47.00;17.50;;;;;;6238978;28;20220;-63
2022/10/10 11:15:16;;;;;;;5.90;4.53;;;46.60;17.90;;;;;;6250489;28;20577;-62
2022/10/10 11:18:27;;;;;;;4.43;4.03;;;46.00;17.70;;;;;;6224242;28;20555;-63
2022/10/10 11:21:37;;;;;;;6.10;4.70;;;46.40;18.00;;;;;;6232555;28;20298;-62
2022/10/10 11:24:46;;;;;;;5.90;4.10;;;47.70;17.20;;;;;;6234575;28;20235;-63
2022/10/10 11:27:55;;;;;;;5.57;5.07;;;48.80;16.90;;;;;;6234613;28;20242;-63
2022/10/10 11:31:02;;;;;;;5.47;4.97;;;47.50;16.80;;;;;;6236568;28;20246;-62
2022/10/10 11:34:13;;;;;;;6.32;5.18;;;47.50;17.20;;;;;;6235867;28;20239;-61
2022/10/10 11:37:24;;;;;;;4.95;4.55;;;47.70;16.90;;;;;;6232692;28;20220;-61
2022/10/10 11:40:34;;;;;;;5.00;4.60;;;48.30;16.90;;;;;;6245136;28;20319;-61
2022/10/10 11:43:45;;;;;;;6.32;5.15;;;48.60;16.40;;;;;;6237581;28;20263;-61
2022/10/10 11:46:54;;;;;;;6.25;4.32;;;48.20;16.90;;;;;;6200553;28;20578;-60
2022/10/10 11:50:03;;;;;;;6.00;4.55;;;48.30;16.70;;;;;;6204192;28;20574;-61
2022/10/10 11:53:15;;;;;;;4.90;4.35;;;48.10;16.60;;;;;;6225113;28;20239;-62
2022/10/10 11:56:23;;;;;;;6.25;4.55;;;47.70;16.70;;;;;;6225011;28;20631;-63
2022/10/10 11:59:33;;;;;;;6.32;5.80;;;46.40;17.30;;;;;;6236905;28;20232;-61
2022/10/10 12:02:39;;;;;;;6.60;4.95;;;46.40;17.90;;;;;;6248873;28;20231;-62
2022/10/10 12:05:50;;;;;;;5.95;5.22;;;46.30;17.40;;;;;;6249640;28;20235;-61
2022/10/10 12:09:01;;;;;;;7.10;5.80;;;45.80;17.60;;;;;;6238424;28;20232;-60
2022/10/10 12:12:11;;;;;;;8.25;5.93;;;44.40;18.60;;;;;;6237786;28;20227;-61
2022/10/10 12:15:25;;;;;;;5.80;5.40;;;43.70;19.30;;;;;;6253264;28;20622;-60
2022/10/10 12:18:38;;;;;;;5.70;5.20;;;45.20;18.30;;;;;;6254373;28;20241;-62
2022/10/10 12:21:55;;;;;;;6.68;5.95;;;45.90;18.00;;;;;;6254448;28;20248;-62
2022/10/10 12:25:35;;;;;;;5.63;5.18;;;45.50;17.70;;;;;;6254122;28;20268;-61
2022/10/10 12:28:59;;;;;;;5.70;5.20;;;45.40;18.30;;;;;;6253765;28;20228;-63
2022/10/10 12:32:23;;;;;;;6.30;5.30;;;46.70;18.00;;;;;;6253864;28;20304;-62
2022/10/10 12:35:40;;;;;;;4.50;4.03;;;46.90;17.20;;;;;;6253728;28;20803;-63
2022/10/10 12:39:26;;;;;;;5.10;4.70;;;47.50;16.90;;;;;;6254589;28;20234;-62
2022/10/10 12:42:33;;;;;;;4.95;4.55;;;47.20;16.90;;;;;;6253300;28;20643;-62
2022/10/10 12:46:23;;;;;;;5.43;4.93;;;46.90;17.20;;;;;;6253345;28;20237;-62
2022/10/10 12:49:26;;;;;;;5.45;4.70;;;47.10;17.30;;;;;;6229599;28;20232;-62
2022/10/10 12:52:34;;;;;;;6.25;5.75;;;47.20;17.40;;;;;;6233736;28;20608;-62
2022/10/10 12:55:42;;;;;;;4.97;4.57;;;46.70;17.20;;;;;;6229029;28;20709;-61
2022/10/10 12:58:48;;;;;;;5.07;4.57;;;46.60;17.70;;;;;;6235666;28;20294;-62
2022/10/10 13:01:56;;;;;;;6.10;5.68;;;46.30;17.50;;;;;;6253998;28;20230;-61
2022/10/10 13:05:01;;;;;;;6.70;5.90;;;45.30;18.00;;;;;;6252755;28;20238;-63
2022/10/10 13:08:07;;;;;;;4.97;4.57;;;45.20;18.30;;;;;;6249434;28;20238;-62
2022/10/10 13:11:12;;;;;;;6.80;6.30;;;45.80;18.30;;;;;;6233852;28;20230;-61
2022/10/10 13:14:17;;;;;;;6.00;5.40;;;45.60;18.30;;;;;;6253377;28;20238;-62
2022/10/10 13:17:23;;;;;;;6.50;5.70;;;45.50;18.50;;;;;;6252983;28;20240;-62
2022/10/10 13:20:34;;;;;;;6.45;5.95;;;44.40;18.70;;;;;;6252708;28;20687;-62
2022/10/10 13:23:41;;;;;;;6.50;6.05;;;42.30;20.20;;;;;;6252816;28;20232;-60
2022/10/10 13:26:47;;;;;;;6.35;5.75;;;41.10;21.20;;;;;;6243562;28;20249;-64
2022/10/10 13:29:52;;;;;;;7.07;6.40;;;39.40;22.60;;;;;;6253158;28;20689;-62
2022/10/10 13:32:56;;;;;;;7.40;6.50;;;36.00;25.40;;;;;;6252837;28;20242;-61
2022/10/10 13:36:06;;;;;;;8.32;7.55;;;34.20;27.40;;;;;;6252349;28;20257;-63
2022/10/10 13:39:15;;;;;;;7.38;6.65;;;32.80;28.80;;;;;;6253085;28;20239;-62
2022/10/10 13:42:33;;;;;;;8.38;7.68;;;30.40;31.80;;;;;;6252759;28;20305;-62
2022/10/10 13:45:43;;;;;;;9.57;8.30;;;28.70;34.80;;;;;;6252304;28;20543;-61
2022/10/10 13:48:47;;;;;;;8.47;7.20;;;26.80;38.30;;;;;;6252207;28;20310;-61
2022/10/10 13:52:00;;;;;;;9.37;8.50;;;25.90;40.40;;;;;;6238523;28;20228;-61
2022/10/10 13:55:23;;;;;;;10.60;7.83;;;25.50;41.60;;;;;;6227485;28;20228;-61
2022/10/10 13:58:27;;;;;;;7.33;6.70;;;24.90;43.20;;;;;;6232415;28;20216;-60
2022/10/10 14:01:36;;;;;;;8.30;7.50;;;24.70;44.20;;;;;;6252278;28;20224;-62
2022/10/10 14:04:45;;;;;;;9.10;8.30;;;24.40;45.30;;;;;;6251321;28;20374;-60
2022/10/10 14:07:50;;;;;;;8.60;7.90;;;23.80;46.50;;;;;;6249616;28;20670;-59
2022/10/10 14:11:00;;;;;;;12.80;7.70;;;23.50;47.50;;;;;;6230386;28;20228;-62
2022/10/10 14:14:08;;;;;;;9.17;8.37;;;23.40;48.10;;;;;;6251766;28;20244;-60
2022/10/10 14:17:13;;;;;;;9.33;8.53;;;23.30;48.90;;;;;;6251808;28;20229;-62
2022/10/10 14:20:17;;;;;;;8.90;8.03;;;23.00;49.30;;;;;;6251855;28;20250;-61
2022/10/10 14:23:20;;;;;;;8.00;7.27;;;22.80;50.50;;;;;;6251840;28;20566;-61
2022/10/10 14:26:23;;;;;;;10.10;9.20;;;22.40;51.40;;;;;;6251659;28;20686;-61
2022/10/10 14:29:26;;;;;;;10.13;8.50;;;22.20;52.20;;;;;;6247117;28;20610;-62
2022/10/10 14:32:31;;;;;;;9.00;8.23;;;22.20;52.50;;;;;;6251434;28;20302;-61
2022/10/10 14:35:35;;;;;;;9.50;8.50;;;21.60;53.70;;;;;;6251029;28;20290;-61
2022/10/10 14:38:38;;;;;;;8.63;7.60;;;21.20;54.90;;;;;;6251876;28;20681;-61
2022/10/10 14:41:41;;;;;;;9.97;8.80;;;21.20;55.50;;;;;;6251618;28;20311;-61
2022/10/10 14:44:44;;;;;;;9.07;7.80;;;21.20;56.80;;;;;;6251465;28;20260;-61
2022/10/10 14:47:50;;;;;;;9.97;9.07;;;20.80;57.20;;;;;;6251255;28;20698;-61
2022/10/10 14:50:54;;;;;;;9.37;8.53;;;20.70;58.00;;;;;;6244924;28;20685;-61
2022/10/10 14:53:57;;;;;;;8.30;7.50;;;20.70;58.60;;;;;;6226503;28;20229;-61
2022/10/10 14:57:16;;;;;;;9.77;8.87;;;20.70;59.20;;;;;;6226005;28;20326;-61
2022/10/10 15:00:21;;;;;;;9.73;8.83;;;20.60;59.90;;;;;;6245630;28;20228;-61
2022/10/10 15:03:26;;;;;;;9.83;8.93;;;20.50;60.50;;;;;;6250645;28;20229;-61
2022/10/10 15:06:29;;;;;;;9.53;7.47;;;20.60;61.20;;;;;;6250584;28;20228;-61
2022/10/10 15:09:32;;;;;;;8.93;7.90;;;20.50;62.20;;;;;;6233823;28;20745;-63
2022/10/10 15:12:46;;;;;;;8.67;7.77;;;20.20;63.00;;;;;;6243788;28;20252;-62
2022/10/10 15:15:50;;;;;;;10.00;9.00;;;20.20;64.20;;;;;;6250002;28;20243;-60
2022/10/10 15:18:54;;;;;;;10.40;8.00;;;20.20;65.10;;;;;;6249271;28;20255;-59
2022/10/10 15:21:57;;;;;;;9.60;8.50;;;20.20;65.50;;;;;;6249487;28;20224;-60
2022/10/10 15:25:01;;;;;;;11.03;8.67;;;20.00;66.20;;;;;;6249794;28;20247;-61
2022/10/10 15:28:05;;;;;;;8.37;7.53;;;19.80;67.70;;;;;;6249346;28;20238;-61
2022/10/10 15:31:08;;;;;;;8.63;7.23;;;19.70;69.50;;;;;;6249569;28;20243;-60
2022/10/10 15:34:13;;;;;;;8.77;7.40;;;19.50;71.10;;;;;;6246469;28;20248;-61
2022/10/10 15:37:17;;;;;;;11.00;7.20;;;19.40;72.50;;;;;;6248976;28;20209;-61
2022/10/10 15:40:22;;;;;;;9.30;6.63;;;19.30;73.70;;;;;;6249302;28;20216;-61
2022/10/10 15:43:26;;;;;;;9.20;8.20;;;19.30;75.10;;;;;;6237259;28;20217;-60
2022/10/10 15:46:30;;;;;;;9.33;8.43;;;19.10;76.20;;;;;;6224880;28;20225;-62
2022/10/10 15:49:34;;;;;;;9.07;8.10;;;19.00;77.10;;;;;;6224240;28;20240;-60
2022/10/10 15:52:38;;;;;;;8.53;7.63;;;18.90;78.20;;;;;;6224500;28;20348;-60
2022/10/10 15:55:42;;;;;;;8.43;7.20;;;18.80;79.30;;;;;;6224289;28;20252;-61
2022/10/10 15:58:45;;;;;;;7.77;7.17;;;18.70;80.40;;;;;;6231646;28;20553;-60
2022/10/10 16:01:48;;;;;;;8.67;7.97;;;18.70;81.20;;;;;;6248924;28;20251;-61
2022/10/10 16:04:53;;;;;;;7.47;6.77;;;18.60;82.20;;;;;;6248652;28;20232;-60
2022/10/10 16:07:56;;;;;;;11.37;9.30;;;18.60;83.00;;;;;;6245714;28;20229;-60
2022/10/10 16:11:03;;;;;;;8.70;7.90;;;18.50;83.60;;;;;;6227831;28;20274;-60